Time;durP1;ratioP1;P1;durP2;ratioP2;P2;SDS_P1;SDS_P2;PMS_P1;PMS_P2;Temp;Humidity;BMP_temperature;BMP_pressure;BME280_temperature;BME280_humidity;BME280_pressure;Samples;Min_cycle;Max_cycle;Signal;HPM_P1;HPM_P2
2023/04/23 00:00:12;;;;;;;16.40;12.00;;;;;;;9.15;100.00;100019.34;695129;28;934;-62
2023/04/23 00:00:36;;;;;;;17.13;12.07;;;;;;;9.14;100.00;100021.09;695366;28;1511;-62
2023/04/23 00:01:01;;;;;;;16.85;12.13;;;;;;;9.14;100.00;100018.50;693985;28;1125;-63
2023/04/23 00:01:27;;;;;;;17.00;12.00;;;;;;;9.13;100.00;100019.38;694673;28;1214;-62
2023/04/23 00:01:48;;;;;;;16.63;12.10;;;;;;;9.13;100.00;100021.13;692614;28;1211;-62
2023/04/23 00:02:12;;;;;;;16.27;12.15;;;;;;;9.12;100.00;100022.00;689117;28;1309;-62
2023/04/23 00:02:34;;;;;;;17.83;12.32;;;;;;;9.11;100.00;100018.53;688270;28;924;-62
2023/04/23 00:03:03;;;;;;;16.98;12.32;;;;;;;9.13;100.00;100019.38;687459;28;4247;-62
2023/04/23 00:03:25;;;;;;;16.92;12.15;;;;;;;9.15;100.00;100020.25;688193;28;1040;-62
2023/04/23 00:03:48;;;;;;;17.98;12.50;;;;;;;9.17;100.00;100021.06;691715;28;1410;-62
2023/04/23 00:04:12;;;;;;;18.60;12.75;;;;;;;9.18;100.00;100017.59;694338;28;1001;-62
2023/04/23 00:04:36;;;;;;;17.77;12.50;;;;;;;9.18;100.00;100016.75;694457;28;877;-62
2023/04/23 00:05:03;;;;;;;16.70;12.05;;;;;;;9.17;100.00;100018.47;694727;28;1233;-63
2023/04/23 00:05:26;;;;;;;18.17;12.63;;;;;;;9.15;100.00;100019.34;694954;28;1396;-62
2023/04/23 00:05:50;;;;;;;19.02;12.63;;;;;;;9.14;100.00;100015.88;694321;28;4348;-62
2023/04/23 00:06:11;;;;;;;16.92;12.20;;;;;;;9.13;100.00;100014.16;693688;28;1113;-62
2023/04/23 00:06:32;;;;;;;17.85;12.35;;;;;;;9.15;100.00;100016.75;695754;28;1024;-62
2023/04/23 00:06:53;;;;;;;17.77;12.45;;;;;;;9.16;100.00;100023.69;695271;28;1393;-62
2023/04/23 00:07:15;;;;;;;18.52;13.35;;;;;;;9.15;100.00;100015.03;695036;28;1914;-63
2023/04/23 00:07:36;;;;;;;18.20;13.07;;;;;;;9.16;100.00;100016.72;695137;28;955;-63
2023/04/23 00:07:59;;;;;;;19.23;12.60;;;;;;;9.16;100.00;100018.47;694856;28;950;-62
2023/04/23 00:08:19;;;;;;;17.40;12.52;;;;;;;9.16;100.00;100018.47;695470;28;1016;-62
2023/04/23 00:08:41;;;;;;;16.25;11.98;;;;;;;9.15;100.00;100014.13;693525;28;4521;-62
2023/04/23 00:09:02;;;;;;;16.67;11.93;;;;;;;9.14;100.00;100015.03;693887;28;967;-62
2023/04/23 00:09:23;;;;;;;17.50;12.30;;;;;;;9.12;100.00;100015.03;694710;28;840;-62
2023/04/23 00:09:44;;;;;;;17.40;12.48;;;;;;;9.11;100.00;100013.31;694991;28;865;-62
2023/04/23 00:10:07;;;;;;;18.48;12.93;;;;;;;9.09;100.00;100012.44;694506;28;1328;-62
2023/04/23 00:10:28;;;;;;;18.35;13.27;;;;;;;9.09;100.00;100012.44;695032;28;892;-62
2023/04/23 00:10:49;;;;;;;18.92;12.88;;;;;;;9.10;100.00;100016.81;694271;28;868;-63
2023/04/23 00:11:10;;;;;;;18.92;12.65;;;;;;;9.11;100.00;100015.03;694118;28;1137;-61
2023/04/23 00:11:30;;;;;;;17.98;12.85;;;;;;;9.11;100.00;100013.31;695463;28;823;-62
2023/04/23 00:11:51;;;;;;;18.48;12.90;;;;;;;9.11;100.00;100010.72;693904;28;4349;-61
2023/04/23 00:12:12;;;;;;;19.53;13.53;;;;;;;9.12;100.00;100014.19;693892;28;1061;-62
2023/04/23 00:12:32;;;;;;;18.23;12.88;;;;;;;9.12;100.00;100011.56;695670;28;979;-62
2023/04/23 00:12:53;;;;;;;18.00;12.68;;;;;;;9.12;100.00;100009.81;693988;28;857;-62
2023/04/23 00:13:14;;;;;;;17.80;13.20;;;;;;;9.13;100.00;100010.69;694151;28;1306;-62
2023/04/23 00:13:35;;;;;;;19.77;13.40;;;;;;;9.12;100.00;100008.97;695772;28;1050;-63
2023/04/23 00:13:55;;;;;;;20.10;14.15;;;;;;;9.12;100.00;100014.19;694418;28;986;-62
2023/04/23 00:14:16;;;;;;;18.67;12.98;;;;;;;9.11;100.00;100013.31;693643;28;928;-63
2023/04/23 00:14:36;;;;;;;18.77;13.13;;;;;;;9.11;100.00;100015.94;693610;28;897;-62
2023/04/23 00:14:57;;;;;;;20.23;13.15;;;;;;;9.14;100.00;100017.66;692964;28;4492;-62
2023/04/23 00:15:20;;;;;;;19.15;12.52;;;;;;;9.14;100.00;100009.81;694448;28;1010;-62
2023/04/23 00:15:41;;;;;;;18.00;12.70;;;;;;;9.13;100.00;100008.94;695295;28;944;-62
2023/04/23 00:16:02;;;;;;;18.25;12.75;;;;;;;9.12;100.00;100012.41;695321;28;930;-62
2023/04/23 00:16:23;;;;;;;19.35;12.73;;;;;;;9.13;100.00;100011.56;694477;28;885;-62
2023/04/23 00:16:44;;;;;;;18.92;12.38;;;;;;;9.14;100.00;100007.22;695195;28;1686;-62
2023/04/23 00:17:05;;;;;;;17.65;12.07;;;;;;;9.14;100.00;100008.06;694441;28;880;-62
2023/04/23 00:17:25;;;;;;;17.60;12.25;;;;;;;9.12;100.00;100007.19;694502;28;928;-62
2023/04/23 00:17:45;;;;;;;18.80;12.77;;;;;;;9.11;100.00;100008.09;694273;28;4344;-62
2023/04/23 00:18:06;;;;;;;18.23;12.40;;;;;;;9.13;100.00;100005.47;694352;28;1321;-62
2023/04/23 00:18:28;;;;;;;19.15;12.60;;;;;;;9.15;100.00;100007.19;694575;28;1364;-62
2023/04/23 00:18:48;;;;;;;19.52;13.15;;;;;;;9.17;100.00;100009.78;694732;28;911;-62
2023/04/23 00:19:09;;;;;;;19.15;13.27;;;;;;;9.19;100.00;100011.50;693705;28;1026;-62
2023/04/23 00:19:29;;;;;;;18.57;13.17;;;;;;;9.20;100.00;100000.16;695888;28;939;-62
2023/04/23 00:19:50;;;;;;;18.20;12.68;;;;;;;9.20;100.00;100005.38;695307;28;1333;-62
2023/04/23 00:20:11;;;;;;;18.15;12.93;;;;;;;9.20;100.00;100013.22;693315;28;1042;-62
2023/04/23 00:20:33;;;;;;;16.47;12.13;;;;;;;9.18;100.00;100007.16;694387;28;868;-62
2023/04/23 00:20:53;;;;;;;17.33;12.75;;;;;;;9.17;100.00;100008.03;691554;28;4261;-62
2023/04/23 00:21:14;;;;;;;17.52;12.75;;;;;;;9.15;100.00;100009.81;692037;28;1976;-62
2023/04/23 00:21:35;;;;;;;17.42;13.05;;;;;;;9.16;100.00;100008.91;692777;28;905;-62
2023/04/23 00:21:55;;;;;;;17.60;12.63;;;;;;;9.14;100.00;100010.69;691587;28;956;-62
2023/04/23 00:22:16;;;;;;;18.17;12.73;;;;;;;9.14;100.00;100008.06;689717;28;897;-62
2023/04/23 00:22:36;;;;;;;18.43;12.70;;;;;;;9.15;100.00;100012.41;690346;28;5339;-63
2023/04/23 00:22:56;;;;;;;17.65;13.05;;;;;;;9.18;100.00;100011.53;691347;28;1385;-63
2023/04/23 00:23:17;;;;;;;17.70;12.60;;;;;;;9.18;100.00;100011.53;694527;28;889;-62
2023/04/23 00:23:38;;;;;;;17.48;12.35;;;;;;;9.15;100.00;100016.75;695100;28;983;-62
2023/04/23 00:23:59;;;;;;;17.05;11.82;;;;;;;9.15;100.00;100011.53;695643;28;4668;-62
2023/04/23 00:24:19;;;;;;;17.95;12.88;;;;;;;9.13;100.00;100006.34;694850;28;967;-62
2023/04/23 00:24:40;;;;;;;17.13;12.13;;;;;;;9.13;100.00;100008.09;694521;28;1408;-62
2023/04/23 00:25:01;;;;;;;18.60;12.20;;;;;;;9.13;100.00;100005.47;693842;28;969;-62
2023/04/23 00:25:21;;;;;;;18.65;12.63;;;;;;;9.15;100.00;100016.75;695521;28;979;-62
2023/04/23 00:25:41;;;;;;;18.63;12.73;;;;;;;9.15;100.00;100008.91;694981;28;865;-62
2023/04/23 00:26:02;;;;;;;18.20;12.68;;;;;;;9.14;100.00;100010.69;693986;28;950;-62
2023/04/23 00:26:22;;;;;;;17.27;12.57;;;;;;;9.12;100.00;100011.56;697203;28;1592;-62
2023/04/23 00:26:43;;;;;;;17.47;12.70;;;;;;;9.12;100.00;100012.41;694934;28;4747;-62
2023/04/23 00:27:03;;;;;;;17.70;12.67;;;;;;;9.14;100.00;100005.47;697698;28;1991;-62
2023/04/23 00:27:24;;;;;;;17.48;12.48;;;;;;;9.14;100.00;100004.63;696651;28;1491;-62
2023/04/23 00:27:44;;;;;;;17.03;12.20;;;;;;;9.15;100.00;100012.41;697275;28;936;-62
2023/04/23 00:28:05;;;;;;;17.58;12.23;;;;;;;9.11;100.00;100009.81;694307;28;1302;-62
2023/04/23 00:28:25;;;;;;;17.70;12.37;;;;;;;9.09;100.00;100007.25;694272;28;1195;-62
2023/04/23 00:28:45;;;;;;;17.08;12.27;;;;;;;9.07;100.00;100014.22;694827;28;852;-62
2023/04/23 00:29:06;;;;;;;16.87;12.50;;;;;;;9.07;100.00;100014.22;694848;28;1117;-62
2023/04/23 00:29:26;;;;;;;18.37;12.20;;;;;;;9.06;100.00;100011.63;692559;28;1362;-62
2023/04/23 00:29:47;;;;;;;19.80;13.05;;;;;;;9.07;100.00;100008.13;691186;28;4473;-62
2023/04/23 00:30:07;;;;;;;18.17;12.73;;;;;;;9.06;100.00;100012.50;687313;28;1382;-62
2023/04/23 00:30:28;;;;;;;17.53;12.03;;;;;;;9.05;100.00;100008.16;685858;28;1157;-62
2023/04/23 00:30:48;;;;;;;18.75;12.27;;;;;;;9.05;100.00;100010.75;686320;28;802;-62
2023/04/23 00:31:09;;;;;;;18.23;12.40;;;;;;;9.04;100.00;100009.00;685842;28;955;-62
2023/04/23 00:31:29;;;;;;;17.67;12.68;;;;;;;9.02;100.00;100006.44;689632;28;1608;-62
2023/04/23 00:31:50;;;;;;;17.30;12.60;;;;;;;9.02;100.00;100014.25;691066;28;1382;-63
2023/04/23 00:32:11;;;;;;;16.93;12.33;;;;;;;9.05;100.00;100015.13;693070;28;1223;-62
2023/04/23 00:32:31;;;;;;;17.40;12.38;;;;;;;9.04;100.00;100014.22;695940;28;856;-62
2023/04/23 00:32:51;;;;;;;18.37;12.67;;;;;;;9.02;100.00;100014.25;695185;28;4274;-62
2023/04/23 00:33:12;;;;;;;17.70;12.93;;;;;;;9.04;100.00;100009.00;695563;28;1113;-62
2023/04/23 00:33:32;;;;;;;18.40;13.10;;;;;;;9.03;100.00;100009.91;696403;28;754;-62
2023/04/23 00:33:56;;;;;;;18.40;12.82;;;;;;;9.04;100.00;100014.22;697326;28;3495;-62
2023/04/23 00:34:16;;;;;;;18.23;12.48;;;;;;;9.04;100.00;100014.22;698035;28;916;-62
2023/04/23 00:34:37;;;;;;;18.40;12.52;;;;;;;9.03;100.00;100015.97;697271;28;1493;-62
2023/04/23 00:34:57;;;;;;;18.07;12.13;;;;;;;9.04;100.00;100016.84;698042;28;1812;-62
2023/04/23 00:35:17;;;;;;;17.67;12.40;;;;;;;9.03;100.00;100020.34;697473;28;805;-62
2023/04/23 00:35:38;;;;;;;16.92;12.10;;;;;;;9.03;100.00;100009.91;697743;28;994;-62
2023/04/23 00:35:58;;;;;;;18.30;12.37;;;;;;;9.02;100.00;100016.00;696738;28;4470;-62
2023/04/23 00:36:19;;;;;;;19.42;13.50;;;;;;;9.00;100.00;100010.81;695740;28;1297;-62
2023/04/23 00:36:39;;;;;;;18.50;12.80;;;;;;;8.99;100.00;100016.03;697506;28;976;-62
2023/04/23 00:37:00;;;;;;;18.38;12.30;;;;;;;8.99;100.00;100008.22;697031;28;1231;-62
2023/04/23 00:37:20;;;;;;;19.37;12.83;;;;;;;8.99;100.00;100013.44;695856;28;1129;-62
2023/04/23 00:37:44;;;;;;;19.63;12.65;;;;;;;8.97;100.00;100008.22;694907;28;1468;-62
2023/04/23 00:38:05;;;;;;;18.13;12.27;;;;;;;8.96;100.00;100003.88;693568;28;896;-62
2023/04/23 00:38:25;;;;;;;18.47;12.50;;;;;;;8.96;100.00;100005.66;695371;28;1348;-62
2023/04/23 00:38:45;;;;;;;17.77;12.63;;;;;;;9.01;100.00;100003.84;692677;28;4601;-62
2023/04/23 00:39:06;;;;;;;17.77;12.60;;;;;;;8.99;100.00;100005.59;692220;28;1496;-62
2023/04/23 00:39:26;;;;;;;17.38;12.45;;;;;;;8.99;100.00;100010.81;691968;28;1444;-61
2023/04/23 00:39:47;;;;;;;16.90;11.90;;;;;;;9.05;100.00;100004.69;690600;28;869;-62
2023/04/23 00:40:10;;;;;;;17.33;11.80;;;;;;;9.06;100.00;100001.22;689623;28;1577;-62
2023/04/23 00:40:30;;;;;;;17.80;12.38;;;;;;;9.06;100.00;99996.84;691561;28;873;-62
2023/04/23 00:40:51;;;;;;;17.70;12.68;;;;;;;9.06;100.00;99999.44;693015;28;1214;-62
2023/04/23 00:41:12;;;;;;;17.10;12.00;;;;;;;9.06;100.00;100004.66;694046;28;1503;-62
2023/04/23 00:41:33;;;;;;;16.80;11.90;;;;;;;9.05;100.00;100000.31;695002;28;988;-62
2023/04/23 00:41:53;;;;;;;16.80;12.10;;;;;;;9.03;100.00;100002.94;695094;28;4400;-62
2023/04/23 00:42:16;;;;;;;18.60;12.85;;;;;;;9.01;100.00;99998.63;690631;28;1504;-63
2023/04/23 00:42:37;;;;;;;17.83;12.15;;;;;;;8.99;100.00;100000.41;692964;28;868;-62
2023/04/23 00:42:59;;;;;;;17.38;12.27;;;;;;;8.97;100.00;99996.91;695179;28;1487;-62
2023/04/23 00:43:19;;;;;;;18.23;13.07;;;;;;;8.95;100.00;99996.94;696195;28;801;-62
2023/04/23 00:43:40;;;;;;;17.95;12.30;;;;;;;8.95;100.00;100003.91;695309;28;1033;-62
2023/04/23 00:44:02;;;;;;;17.85;12.75;;;;;;;8.96;100.00;100000.44;695098;28;1557;-62
2023/04/23 00:44:23;;;;;;;17.92;12.50;;;;;;;8.94;100.00;100002.16;695134;28;1511;-62
2023/04/23 00:44:43;;;;;;;17.30;12.10;;;;;;;8.92;100.00;99999.56;695225;28;4516;-62
2023/04/23 00:45:07;;;;;;;17.60;12.07;;;;;;;8.90;100.00;100005.69;694118;28;1612;-62
2023/04/23 00:45:28;;;;;;;17.90;12.20;;;;;;;8.92;100.00;100004.78;691796;28;833;-62
2023/04/23 00:45:49;;;;;;;17.63;11.83;;;;;;;8.92;100.00;100003.94;693439;28;872;-62
2023/04/23 00:46:10;;;;;;;16.30;11.48;;;;;;;8.93;100.00;100000.44;694721;28;1246;-62
2023/04/23 00:46:30;;;;;;;17.38;12.40;;;;;;;8.92;100.00;99998.72;696226;28;817;-62
2023/04/23 00:46:52;;;;;;;18.57;12.50;;;;;;;8.92;100.00;100004.78;694959;28;912;-62
2023/04/23 00:47:15;;;;;;;17.17;12.13;;;;;;;8.93;100.00;99995.22;695754;28;1976;-62
2023/04/23 00:47:36;;;;;;;17.58;12.65;;;;;;;8.91;100.00;99997.00;697300;28;1499;-62
2023/04/23 00:47:57;;;;;;;17.60;12.90;;;;;;;8.95;100.00;100006.50;696371;28;4528;-64
2023/04/23 00:48:17;;;;;;;18.08;13.00;;;;;;;8.96;100.00;100005.66;694275;28;988;-63
2023/04/23 00:48:39;;;;;;;18.23;12.45;;;;;;;8.97;100.00;99996.91;692391;28;1311;-62
2023/04/23 00:49:00;;;;;;;18.48;12.80;;;;;;;8.96;100.00;99995.22;692157;28;1605;-62
2023/04/23 00:49:22;;;;;;;17.30;12.35;;;;;;;8.96;100.00;100001.28;692022;28;1811;-61
2023/04/23 00:49:43;;;;;;;18.15;12.60;;;;;;;8.97;100.00;99989.09;689644;28;1255;-63
2023/04/23 00:50:03;;;;;;;17.97;12.53;;;;;;;8.95;100.00;99993.47;689303;28;1802;-62
2023/04/23 00:50:24;;;;;;;17.58;12.50;;;;;;;8.93;100.00;99993.50;688187;28;777;-62
2023/04/23 00:50:45;;;;;;;17.67;12.20;;;;;;;8.92;100.00;99994.38;687057;28;4419;-62
2023/04/23 00:51:06;;;;;;;17.40;12.30;;;;;;;8.94;100.00;99991.75;691838;28;1666;-62
2023/04/23 00:51:27;;;;;;;17.33;12.27;;;;;;;8.92;100.00;99989.16;693556;28;1373;-62
2023/04/23 00:51:48;;;;;;;18.83;12.70;;;;;;;8.93;100.00;99993.50;696161;28;956;-62
2023/04/23 00:52:08;;;;;;;18.27;13.00;;;;;;;8.95;100.00;99993.47;694951;28;958;-62
2023/04/23 00:52:29;;;;;;;17.50;12.67;;;;;;;8.95;100.00;99988.25;692844;28;1469;-62
2023/04/23 00:52:51;;;;;;;18.02;12.43;;;;;;;8.95;100.00;99989.13;691613;28;917;-62
2023/04/23 00:53:12;;;;;;;17.45;12.20;;;;;;;8.95;100.00;99996.09;688073;28;1598;-63
2023/04/23 00:53:35;;;;;;;17.40;12.27;;;;;;;8.95;100.00;99988.25;690212;28;806;-62
2023/04/23 00:53:55;;;;;;;18.20;12.68;;;;;;;8.94;100.00;99986.53;687020;28;4338;-63
2023/04/23 00:54:16;;;;;;;17.75;12.73;;;;;;;8.94;100.00;99991.75;688511;28;1565;-62
2023/04/23 00:54:36;;;;;;;18.50;12.73;;;;;;;8.91;100.00;99987.41;690579;28;883;-62
2023/04/23 00:54:57;;;;;;;18.47;12.47;;;;;;;8.91;100.00;99994.38;693285;28;1187;-62
2023/04/23 00:55:19;;;;;;;18.03;12.47;;;;;;;8.89;100.00;99990.91;692920;28;1228;-62
2023/04/23 00:55:40;;;;;;;18.58;13.13;;;;;;;8.91;100.00;99989.16;691737;28;920;-62
2023/04/23 00:56:03;;;;;;;19.03;13.30;;;;;;;8.90;100.00;99990.03;691939;28;1489;-62
2023/04/23 00:56:27;;;;;;;18.15;12.57;;;;;;;8.90;100.00;99995.25;691326;28;829;-62
2023/04/23 00:56:48;;;;;;;17.45;12.65;;;;;;;8.90;100.00;99988.28;692357;28;4392;-62
2023/04/23 00:57:09;;;;;;;19.27;12.80;;;;;;;8.90;100.00;99983.06;691163;28;1630;-62
2023/04/23 00:57:30;;;;;;;18.10;12.40;;;;;;;8.90;100.00;99995.25;692262;28;1432;-63
2023/04/23 00:57:51;;;;;;;17.30;12.48;;;;;;;8.91;100.00;99986.56;690434;28;877;-62
2023/04/23 00:58:12;;;;;;;17.05;12.43;;;;;;;8.88;100.00;99986.59;689071;28;1552;-62
2023/04/23 00:58:33;;;;;;;17.13;12.43;;;;;;;8.85;100.00;99990.94;691331;28;888;-63
2023/04/23 00:58:54;;;;;;;18.02;13.02;;;;;;;8.83;100.00;99992.72;692788;28;1484;-62
2023/04/23 00:59:14;;;;;;;18.58;12.98;;;;;;;8.84;100.00;99989.19;695159;28;1565;-62
2023/04/23 00:59:35;;;;;;;19.03;12.57;;;;;;;8.85;100.00;99990.94;694988;28;1180;-62
2023/04/23 00:59:57;;;;;;;17.42;12.00;;;;;;;8.85;100.00;99988.34;691561;28;4540;-62
2023/04/23 01:00:19;;;;;;;16.65;12.38;;;;;;;8.85;100.00;99988.34;693127;28;877;-62
2023/04/23 01:00:45;;;;;;;17.85;12.60;;;;;;;8.87;100.00;99988.31;692921;28;1520;-62
2023/04/23 01:01:06;;;;;;;18.17;12.25;;;;;;;8.86;100.00;99990.06;692628;28;1650;-63
2023/04/23 01:01:27;;;;;;;18.10;12.77;;;;;;;8.86;100.00;99992.69;692065;28;1363;-62
2023/04/23 01:01:47;;;;;;;18.52;12.90;;;;;;;8.85;100.00;99993.53;695600;28;1490;-62
2023/04/23 01:02:07;;;;;;;18.77;12.93;;;;;;;8.83;100.00;99984.00;695345;28;1675;-62
2023/04/23 01:02:29;;;;;;;19.52;13.25;;;;;;;8.84;100.00;99996.16;695986;28;1506;-62
2023/04/23 01:02:51;;;;;;;18.30;12.50;;;;;;;8.84;100.00;99991.81;695095;28;4525;-62
2023/04/23 01:03:12;;;;;;;18.33;12.65;;;;;;;8.86;100.00;99994.41;693542;28;1492;-63
2023/04/23 01:03:35;;;;;;;17.87;12.90;;;;;;;8.86;100.00;99992.69;691932;28;1308;-63
2023/04/23 01:03:56;;;;;;;18.15;12.32;;;;;;;8.87;100.00;99990.94;693428;28;1576;-62
2023/04/23 01:04:18;;;;;;;18.58;13.07;;;;;;;8.86;100.00;99989.19;696110;28;901;-62
2023/04/23 01:04:39;;;;;;;17.63;12.90;;;;;;;8.86;100.00;99990.06;695622;28;817;-63
2023/04/23 01:05:02;;;;;;;18.23;12.85;;;;;;;8.85;100.00;99990.94;694138;28;1697;-63
2023/04/23 01:05:23;;;;;;;18.05;12.57;;;;;;;8.86;100.00;99983.97;695251;28;1282;-62
2023/04/23 01:05:44;;;;;;;19.23;12.40;;;;;;;8.85;100.00;99977.91;695302;28;4307;-62
2023/04/23 01:06:05;;;;;;;19.38;12.48;;;;;;;8.85;100.00;99987.47;694629;28;1618;-63
2023/04/23 01:06:27;;;;;;;18.02;12.88;;;;;;;8.83;100.00;99990.09;695754;28;2047;-62
2023/04/23 01:06:48;;;;;;;18.70;12.82;;;;;;;8.83;100.00;99991.81;696942;28;1165;-63
2023/04/23 01:07:10;;;;;;;20.65;13.20;;;;;;;8.83;100.00;99995.31;693292;28;1918;-62
2023/04/23 01:07:33;;;;;;;18.27;12.30;;;;;;;8.82;100.00;99985.75;695397;28;952;-63
2023/04/23 01:07:54;;;;;;;18.50;12.57;;;;;;;8.83;100.00;99992.72;693906;28;857;-63
2023/04/23 01:08:15;;;;;;;19.10;12.82;;;;;;;8.82;100.00;99990.09;693238;28;1480;-63
2023/04/23 01:08:38;;;;;;;17.55;12.32;;;;;;;8.83;100.00;99990.09;693511;28;1489;-62
2023/04/23 01:08:58;;;;;;;18.73;12.45;;;;;;;8.84;100.00;99993.56;694597;28;5381;-63
2023/04/23 01:09:19;;;;;;;17.73;12.30;;;;;;;8.82;100.00;99993.59;696073;28;829;-63
2023/04/23 01:09:40;;;;;;;19.05;12.95;;;;;;;8.82;100.00;99985.75;696174;28;983;-62
2023/04/23 01:10:02;;;;;;;17.43;12.17;;;;;;;8.83;100.00;99990.09;693246;28;1721;-63
2023/04/23 01:10:23;;;;;;;17.13;12.43;;;;;;;8.82;100.00;99988.38;692856;28;1603;-63
2023/04/23 01:10:45;;;;;;;18.25;12.73;;;;;;;8.82;100.00;99988.38;693507;28;896;-63
2023/04/23 01:11:06;;;;;;;18.63;12.25;;;;;;;8.84;100.00;99990.97;690579;28;1598;-63
2023/04/23 01:11:26;;;;;;;17.45;11.98;;;;;;;8.85;100.00;99987.47;692872;28;1411;-63
2023/04/23 01:11:49;;;;;;;18.37;12.70;;;;;;;8.84;100.00;99989.19;692371;28;4415;-62
2023/04/23 01:12:10;;;;;;;18.10;12.75;;;;;;;8.83;100.00;99989.22;693423;28;1461;-63
2023/04/23 01:12:31;;;;;;;16.48;11.80;;;;;;;8.85;100.00;99984.88;695208;28;1574;-63
2023/04/23 01:12:52;;;;;;;16.77;11.80;;;;;;;8.85;100.00;99987.47;690617;28;868;-63
2023/04/23 01:13:13;;;;;;;17.25;12.25;;;;;;;8.83;100.00;99990.09;692715;28;1519;-63
2023/04/23 01:13:34;;;;;;;17.58;12.38;;;;;;;8.83;100.00;99989.22;694625;28;1637;-62
2023/04/23 01:13:55;;;;;;;18.15;12.68;;;;;;;8.83;100.00;99990.09;693411;28;1261;-63
2023/04/23 01:14:16;;;;;;;19.05;12.63;;;;;;;8.81;100.00;99991.84;693004;28;1748;-63
2023/04/23 01:14:36;;;;;;;18.55;12.38;;;;;;;8.83;100.00;99991.81;693900;28;821;-63
2023/04/23 01:14:58;;;;;;;17.40;12.23;;;;;;;8.83;100.00;99990.09;695275;28;5236;-63
2023/04/23 01:15:21;;;;;;;19.17;12.57;;;;;;;8.82;100.00;99997.91;697355;28;1160;-63
2023/04/23 01:15:43;;;;;;;17.88;12.23;;;;;;;8.81;100.00;99996.19;696439;28;1405;-63
2023/04/23 01:16:04;;;;;;;18.45;12.82;;;;;;;8.79;100.00;99992.72;697409;28;1513;-62
2023/04/23 01:16:24;;;;;;;19.48;13.00;;;;;;;8.79;100.00;99998.81;697055;28;951;-63
2023/04/23 01:16:45;;;;;;;19.87;12.20;;;;;;;8.81;100.00;99997.06;697808;28;1384;-62
2023/04/23 01:17:07;;;;;;;17.15;12.15;;;;;;;8.81;100.00;99993.59;696479;28;1483;-62
2023/04/23 01:17:31;;;;;;;18.00;12.20;;;;;;;8.81;100.00;99997.06;696441;28;892;-62
2023/04/23 01:17:52;;;;;;;19.73;12.60;;;;;;;8.79;100.00;99998.81;697686;28;4531;-63
2023/04/23 01:18:13;;;;;;;19.10;12.65;;;;;;;8.77;100.00;99990.13;695000;28;1594;-63
2023/04/23 01:18:34;;;;;;;20.30;13.13;;;;;;;8.79;100.00;99993.63;696021;28;1063;-63
2023/04/23 01:18:55;;;;;;;19.60;13.03;;;;;;;8.79;100.00;99993.63;694927;28;848;-62
2023/04/23 01:19:17;;;;;;;20.83;13.63;;;;;;;8.80;100.00;99989.25;696081;28;901;-62
2023/04/23 01:19:38;;;;;;;20.92;13.68;;;;;;;8.80;100.00;99992.72;694059;28;920;-63
2023/04/23 01:19:59;;;;;;;19.30;13.15;;;;;;;8.79;100.00;99987.50;694102;28;1400;-63
2023/04/23 01:20:19;;;;;;;19.45;12.95;;;;;;;8.79;100.00;99991.00;698013;28;1077;-62
2023/04/23 01:20:41;;;;;;;19.03;12.73;;;;;;;8.79;100.00;99995.34;696772;28;4514;-63
2023/04/23 01:21:04;;;;;;;18.25;12.32;;;;;;;8.79;100.00;99996.22;697533;28;1481;-62
2023/04/23 01:21:25;;;;;;;17.98;13.07;;;;;;;8.81;100.00;99991.00;696639;28;1549;-63
2023/04/23 01:21:46;;;;;;;18.45;13.45;;;;;;;8.82;100.00;99987.47;696752;28;940;-62
2023/04/23 01:22:11;;;;;;;18.60;13.20;;;;;;;8.85;100.00;99992.69;695144;28;1467;-62
2023/04/23 01:22:36;;;;;;;18.67;12.82;;;;;;;8.88;100.00;99991.81;694225;28;5398;-63
2023/04/23 01:22:57;;;;;;;16.75;12.48;;;;;;;8.89;100.00;99986.56;696162;28;1549;-62
2023/04/23 01:23:18;;;;;;;18.90;12.80;;;;;;;8.86;100.00;99984.84;696957;28;885;-62
2023/04/23 01:23:39;;;;;;;18.98;12.30;;;;;;;8.83;100.00;99995.31;696717;28;4469;-62
2023/04/23 01:24:01;;;;;;;17.05;11.70;;;;;;;8.84;100.00;99990.97;696254;28;1657;-61
2023/04/23 01:24:21;;;;;;;17.67;12.15;;;;;;;8.83;100.00;99990.09;696681;28;951;-64
2023/04/23 01:24:42;;;;;;;19.37;12.07;;;;;;;8.82;100.00;99990.09;698194;28;1412;-62
2023/04/23 01:25:03;;;;;;;20.57;12.50;;;;;;;8.79;100.00;99988.41;696760;28;1613;-63
2023/04/23 01:25:24;;;;;;;18.27;12.95;;;;;;;8.76;100.00;99987.53;696860;28;987;-63
2023/04/23 01:25:45;;;;;;;18.88;13.20;;;;;;;8.75;100.00;99989.31;696507;28;1382;-62
2023/04/23 01:26:06;;;;;;;18.55;12.85;;;;;;;8.72;100.00;99983.22;696789;28;1633;-63
2023/04/23 01:26:26;;;;;;;18.30;13.07;;;;;;;8.72;100.00;99978.88;696614;28;1531;-63
2023/04/23 01:26:47;;;;;;;19.27;13.60;;;;;;;8.73;100.00;99985.81;696193;28;4352;-62
2023/04/23 01:27:08;;;;;;;18.87;12.73;;;;;;;8.74;100.00;99982.34;696706;28;1906;-63
2023/04/23 01:27:29;;;;;;;19.10;13.13;;;;;;;8.75;100.00;99980.59;697290;28;888;-62
2023/04/23 01:27:50;;;;;;;18.45;13.00;;;;;;;8.74;100.00;99984.97;696743;28;1440;-63
2023/04/23 01:28:12;;;;;;;18.83;12.95;;;;;;;8.73;100.00;99983.22;696763;28;1609;-62
2023/04/23 01:28:33;;;;;;;18.60;12.67;;;;;;;8.74;100.00;99991.94;697268;28;1176;-63
2023/04/23 01:28:54;;;;;;;17.60;12.20;;;;;;;8.72;100.00;99985.84;696377;28;1070;-63
2023/04/23 01:29:14;;;;;;;18.05;12.25;;;;;;;8.72;100.00;99989.31;694071;28;1488;-63
2023/04/23 01:29:36;;;;;;;19.25;12.95;;;;;;;8.72;100.00;99981.47;694815;28;1437;-63
2023/04/23 01:29:57;;;;;;;19.45;12.77;;;;;;;8.71;100.00;99986.72;693241;28;4908;-63
2023/04/23 01:30:18;;;;;;;20.10;12.90;;;;;;;8.67;100.00;99986.75;695666;28;900;-64
2023/04/23 01:30:41;;;;;;;18.70;12.80;;;;;;;8.65;100.00;99985.03;695925;28;979;-63
2023/04/23 01:31:02;;;;;;;18.65;12.63;;;;;;;8.65;100.00;99992.84;691688;28;1558;-63
2023/04/23 01:31:24;;;;;;;18.45;12.48;;;;;;;8.63;100.00;99985.03;692324;28;1232;-63
2023/04/23 01:31:45;;;;;;;19.83;12.93;;;;;;;8.61;100.00;99993.72;692323;28;821;-63
2023/04/23 01:32:07;;;;;;;19.17;12.85;;;;;;;8.60;100.00;99985.06;686794;28;1394;-63
2023/04/23 01:32:31;;;;;;;20.15;12.90;;;;;;;8.60;100.00;99981.56;687595;28;1241;-63
2023/04/23 01:32:53;;;;;;;18.52;12.55;;;;;;;8.60;100.00;99987.66;689160;28;4413;-63
2023/04/23 01:33:15;;;;;;;18.75;12.45;;;;;;;8.62;100.00;99990.25;688556;28;1614;-64
2023/04/23 01:33:35;;;;;;;19.52;12.60;;;;;;;8.63;100.00;99985.03;689175;28;837;-63
2023/04/23 01:33:56;;;;;;;18.40;13.15;;;;;;;8.64;100.00;99984.16;689825;28;1500;-63
2023/04/23 01:34:17;;;;;;;17.90;13.15;;;;;;;8.63;100.00;99985.03;691926;28;1554;-63
2023/04/23 01:34:39;;;;;;;19.15;12.60;;;;;;;8.63;100.00;99981.56;694722;28;1034;-63
2023/04/23 01:35:00;;;;;;;18.63;13.02;;;;;;;8.62;100.00;99987.66;695057;28;1505;-62
2023/04/23 01:35:21;;;;;;;19.25;13.23;;;;;;;8.60;100.00;99984.19;697396;28;1104;-63
2023/04/23 01:35:42;;;;;;;18.75;12.73;;;;;;;8.61;100.00;99985.91;696813;28;4541;-63
2023/04/23 01:36:03;;;;;;;19.98;12.63;;;;;;;8.63;100.00;99981.56;690808;28;1684;-63
2023/04/23 01:36:24;;;;;;;18.75;12.60;;;;;;;8.63;100.00;99976.38;691220;28;874;-63
2023/04/23 01:36:46;;;;;;;18.17;13.15;;;;;;;8.63;100.00;99984.19;690645;28;1438;-63
2023/04/23 01:37:10;;;;;;;18.73;12.90;;;;;;;8.64;100.00;99985.88;692075;28;1626;-62
2023/04/23 01:37:31;;;;;;;18.92;12.95;;;;;;;8.64;100.00;99984.16;691973;28;1422;-63
2023/04/23 01:37:52;;;;;;;18.23;12.77;;;;;;;8.65;100.00;99991.13;691878;28;866;-63
2023/04/23 01:38:13;;;;;;;18.80;12.50;;;;;;;8.64;100.00;99984.16;692609;28;1529;-63
2023/04/23 01:38:36;;;;;;;19.50;12.68;;;;;;;8.63;100.00;99982.44;695003;28;1640;-63
2023/04/23 01:38:57;;;;;;;19.27;12.88;;;;;;;8.61;100.00;99983.31;694514;28;4301;-63
2023/04/23 01:39:18;;;;;;;18.38;12.82;;;;;;;8.61;100.00;99984.19;693834;28;1559;-63
2023/04/23 01:39:39;;;;;;;18.63;12.98;;;;;;;8.62;100.00;99979.84;694503;28;984;-63
2023/04/23 01:39:59;;;;;;;19.77;13.17;;;;;;;8.63;100.00;99986.78;694325;28;1480;-64